createdAt,value
2019-03-29T00:00:54.235Z,9.80
2019-03-29T00:01:34.228Z,11.48
2019-03-29T00:02:14.471Z,10.03
2019-03-29T00:02:54.049Z,10.15
2019-03-29T00:03:34.324Z,9.98
2019-03-29T00:04:14.616Z,11.00
2019-03-29T00:04:53.638Z,9.85
2019-03-29T00:05:34.149Z,10.88
2019-03-29T00:06:13.888Z,10.65
2019-03-29T00:06:53.613Z,10.15
2019-03-29T00:07:39.503Z,10.63
2019-03-29T00:08:14.662Z,10.60
2019-03-29T00:08:54.233Z,10.58
2019-03-29T00:09:34.350Z,10.98
2019-03-29T00:10:13.417Z,10.45
2019-03-29T00:10:52.377Z,11.10
2019-03-29T00:11:31.411Z,10.03
2019-03-29T00:12:10.471Z,11.05
2019-03-29T00:12:49.974Z,10.08
2019-03-29T00:13:29.017Z,10.25
2019-03-29T00:14:08.703Z,10.20
2019-03-29T00:14:47.814Z,11.65
2019-03-29T00:15:27.591Z,11.08
2019-03-29T00:16:07.331Z,11.05
2019-03-29T00:16:47.435Z,10.85
2019-03-29T00:17:27.830Z,10.68
2019-03-29T00:18:10.717Z,10.93
2019-03-29T00:18:50.437Z,12.95
2019-03-29T00:19:29.586Z,12.15
2019-03-29T00:20:09.059Z,12.07
2019-03-29T00:20:48.357Z,13.13
2019-03-29T00:21:27.693Z,11.93
2019-03-29T00:22:06.803Z,12.35
2019-03-29T00:22:46.061Z,12.63
2019-03-29T00:23:27.061Z,13.50
2019-03-29T00:24:07.369Z,12.05
2019-03-29T00:24:47.011Z,11.97
2019-03-29T00:25:26.433Z,13.58
2019-03-29T00:26:06.053Z,13.38
2019-03-29T00:26:45.081Z,12.25
2019-03-29T00:27:25.461Z,12.53
2019-03-29T00:28:04.537Z,14.30
2019-03-29T00:28:43.735Z,12.15
2019-03-29T00:29:22.746Z,13.43
2019-03-29T00:30:01.825Z,12.90
2019-03-29T00:30:40.963Z,13.70
2019-03-29T00:31:20.285Z,12.78
2019-03-29T00:32:00.519Z,13.05
2019-03-29T00:32:40.172Z,13.68
2019-03-29T00:33:19.607Z,13.55
2019-03-29T00:33:59.278Z,14.28
2019-03-29T00:34:38.954Z,13.50
2019-03-29T00:35:18.495Z,14.03
2019-03-29T00:35:58.015Z,13.53
2019-03-29T00:36:37.529Z,14.05
2019-03-29T00:37:18.072Z,14.30
2019-03-29T00:37:57.922Z,13.68
2019-03-29T00:38:37.553Z,14.25
2019-03-29T00:39:16.530Z,14.00
2019-03-29T00:39:56.306Z,14.10
2019-03-29T00:40:35.460Z,15.13
2019-03-29T00:41:14.445Z,14.25
2019-03-29T00:41:53.943Z,14.23
2019-03-29T00:42:33.079Z,14.35
2019-03-29T00:43:12.164Z,14.80
2019-03-29T00:43:51.499Z,15.85
2019-03-29T00:44:31.243Z,14.93
2019-03-29T00:45:10.924Z,15.72
2019-03-29T00:45:51.161Z,16.50
2019-03-29T00:46:30.281Z,15.63
2019-03-29T00:47:09.958Z,16.65
2019-03-29T00:47:49.321Z,16.12
2019-03-29T00:48:28.795Z,16.60
2019-03-29T00:49:08.294Z,17.15
2019-03-29T00:49:47.664Z,16.82
2019-03-29T00:50:30.486Z,16.02
2019-03-29T00:51:10.208Z,16.62
2019-03-29T00:51:49.234Z,16.62
2019-03-29T00:52:28.991Z,17.15
2019-03-29T00:53:09.021Z,16.37
2019-03-29T00:53:48.728Z,16.42
2019-03-29T00:54:28.430Z,17.27
2019-03-29T00:55:07.451Z,17.45
2019-03-29T00:55:46.970Z,19.07
2019-03-29T00:56:28.957Z,17.45
2019-03-29T00:57:08.678Z,18.00
2019-03-29T00:57:48.207Z,17.60
2019-03-29T00:58:27.963Z,17.80
2019-03-29T00:59:07.078Z,18.30
2019-03-29T00:59:46.100Z,19.33
2019-03-29T01:00:31.157Z,20.17
2019-03-29T01:01:08.935Z,20.82
2019-03-29T01:01:48.643Z,19.73
2019-03-29T01:02:29.032Z,20.85
2019-03-29T01:03:08.748Z,20.53
2019-03-29T01:03:48.453Z,21.50
2019-03-29T01:04:29.085Z,22.48
2019-03-29T01:05:08.396Z,21.40
2019-03-29T01:05:48.005Z,22.23
2019-03-29T01:06:30.173Z,21.68
2019-03-29T01:07:10.100Z,22.05
2019-03-29T01:07:50.030Z,22.73
2019-03-29T01:08:29.880Z,22.05
2019-03-29T01:09:09.629Z,22.93
2019-03-29T01:09:49.053Z,22.98
2019-03-29T01:10:31.401Z,22.02
2019-03-29T01:11:11.078Z,23.27
2019-03-29T01:11:50.118Z,23.40
2019-03-29T01:12:30.480Z,25.50
2019-03-29T01:13:10.232Z,22.90
2019-03-29T01:13:50.852Z,23.10
2019-03-29T01:14:30.813Z,23.07
2019-03-29T01:15:11.102Z,23.00
2019-03-29T01:15:50.720Z,22.35
2019-03-29T01:16:30.350Z,23.27
2019-03-29T01:17:10.068Z,23.98
2019-03-29T01:17:49.784Z,23.40
2019-03-29T01:18:29.468Z,23.60
2019-03-29T01:19:09.201Z,23.27
2019-03-29T01:19:48.284Z,24.55
2019-03-29T01:20:31.193Z,24.90
2019-03-29T01:21:11.406Z,27.15
2019-03-29T01:21:50.895Z,28.15
2019-03-29T01:22:31.328Z,26.33
2019-03-29T01:23:11.562Z,25.88
2019-03-29T01:23:51.273Z,26.25
2019-03-29T01:24:31.001Z,26.42
2019-03-29T01:25:10.268Z,25.48
2019-03-29T01:25:49.928Z,26.95
2019-03-29T01:26:28.968Z,24.80
2019-03-29T01:27:07.926Z,24.32
2019-03-29T01:27:46.962Z,24.23
2019-03-29T01:28:26.269Z,25.90
2019-03-29T01:29:06.231Z,24.77
2019-03-29T01:29:45.600Z,24.85
2019-03-29T01:30:24.861Z,24.93
2019-03-29T01:31:04.265Z,23.80
2019-03-29T01:31:43.817Z,24.10
2019-03-29T01:32:23.395Z,25.25
2019-03-29T01:33:02.785Z,24.30
2019-03-29T01:33:42.405Z,23.37
2019-03-29T01:34:22.103Z,26.12
2019-03-29T01:35:01.844Z,23.07
2019-03-29T01:35:41.380Z,26.37
2019-03-29T01:36:21.129Z,25.80
2019-03-29T01:37:00.846Z,24.33
2019-03-29T01:37:40.602Z,24.03
2019-03-29T01:38:22.212Z,24.70
2019-03-29T01:39:01.401Z,25.30
2019-03-29T01:39:40.915Z,26.00
2019-03-29T01:40:20.653Z,25.75
2019-03-29T01:41:00.424Z,23.87
2019-03-29T01:41:40.912Z,27.50
2019-03-29T01:42:21.239Z,26.40
2019-03-29T01:43:00.433Z,26.20
2019-03-29T01:43:40.124Z,25.70
2019-03-29T01:44:19.713Z,26.85
2019-03-29T01:44:58.832Z,26.60
2019-03-29T01:45:37.766Z,26.67
2019-03-29T01:46:16.896Z,26.07
2019-03-29T01:46:56.937Z,27.23
2019-03-29T01:47:37.382Z,28.47
2019-03-29T01:48:18.456Z,26.80
2019-03-29T01:48:57.598Z,26.95
2019-03-29T01:49:36.601Z,26.63
2019-03-29T01:50:16.228Z,27.00
2019-03-29T01:50:55.957Z,27.90
2019-03-29T01:51:35.348Z,26.03
2019-03-29T01:52:14.999Z,25.07
2019-03-29T01:52:54.670Z,26.93
2019-03-29T01:53:34.332Z,24.93
2019-03-29T01:54:13.958Z,27.83
2019-03-29T01:54:53.711Z,26.40
2019-03-29T01:55:33.496Z,26.50
2019-03-29T01:56:12.957Z,26.20
2019-03-29T01:56:52.599Z,25.43
2019-03-29T01:57:32.903Z,25.37
2019-03-29T01:58:12.772Z,25.20
2019-03-29T01:58:52.580Z,25.95
2019-03-29T01:59:32.974Z,25.82
2019-03-29T02:00:12.757Z,25.20
2019-03-29T02:00:52.415Z,25.68
2019-03-29T02:01:32.087Z,24.90
2019-03-29T02:02:12.306Z,25.33
2019-03-29T02:02:52.044Z,24.07
2019-03-29T02:03:31.449Z,25.30
2019-03-29T02:04:10.421Z,24.87
2019-03-29T02:04:49.690Z,25.57
2019-03-29T02:05:28.798Z,27.23
2019-03-29T02:06:08.156Z,25.60
2019-03-29T02:06:47.419Z,25.87
2019-03-29T02:07:27.184Z,26.27
2019-03-29T02:08:06.215Z,25.87
2019-03-29T02:08:46.000Z,26.60
2019-03-29T02:09:25.801Z,25.60
2019-03-29T02:10:05.029Z,26.40
2019-03-29T02:10:44.685Z,26.20
2019-03-29T02:11:24.305Z,27.00
2019-03-29T02:12:03.928Z,24.93
2019-03-29T02:12:42.904Z,27.60
2019-03-29T02:13:22.582Z,25.72
2019-03-29T02:14:01.622Z,26.50
2019-03-29T02:14:40.628Z,23.93
2019-03-29T02:15:19.627Z,26.30
2019-03-29T02:15:58.942Z,25.57
2019-03-29T02:16:38.369Z,25.17
2019-03-29T02:17:17.994Z,25.80
2019-03-29T02:17:57.576Z,25.97
2019-03-29T02:18:36.652Z,25.80
2019-03-29T02:19:16.369Z,27.17
2019-03-29T02:19:56.100Z,26.53
2019-03-29T02:20:35.742Z,26.33
2019-03-29T02:21:16.265Z,27.10
2019-03-29T02:21:56.452Z,26.27
2019-03-29T02:22:36.940Z,28.87
2019-03-29T02:23:16.180Z,27.77
2019-03-29T02:23:56.990Z,26.00
2019-03-29T02:24:36.373Z,26.63
2019-03-29T02:25:16.146Z,25.60
2019-03-29T02:25:55.993Z,28.17
2019-03-29T02:26:35.144Z,26.67
2019-03-29T02:27:14.770Z,28.27
2019-03-29T02:27:53.834Z,26.07
2019-03-29T02:28:33.499Z,28.40
2019-03-29T02:29:12.513Z,29.03
2019-03-29T02:29:51.458Z,28.85
2019-03-29T02:30:32.005Z,27.77
2019-03-29T02:31:11.090Z,26.90
2019-03-29T02:31:50.119Z,27.67
2019-03-29T02:32:29.209Z,27.30
2019-03-29T02:33:08.480Z,28.47
2019-03-29T02:33:48.454Z,28.90
2019-03-29T02:34:28.304Z,29.57
2019-03-29T02:35:08.292Z,29.87
2019-03-29T02:35:47.920Z,29.50
2019-03-29T02:36:27.748Z,29.73
2019-03-29T02:37:07.583Z,28.27
2019-03-29T02:37:47.144Z,27.90
2019-03-29T02:38:26.736Z,30.20
2019-03-29T02:39:06.364Z,29.00
2019-03-29T02:39:46.000Z,30.40
2019-03-29T02:40:27.920Z,30.27
2019-03-29T02:41:07.986Z,29.33
2019-03-29T02:41:47.578Z,28.50
2019-03-29T02:42:27.275Z,29.87
2019-03-29T02:43:06.902Z,30.70
2019-03-29T02:43:46.329Z,30.23
2019-03-29T02:44:29.638Z,29.57
2019-03-29T02:45:09.348Z,30.47
2019-03-29T02:45:49.025Z,28.80
2019-03-29T02:46:28.145Z,29.33
2019-03-29T02:47:07.871Z,31.63
2019-03-29T02:47:48.740Z,30.50
2019-03-29T02:48:27.775Z,30.00
2019-03-29T02:49:07.528Z,30.70
2019-03-29T02:49:46.975Z,29.77
2019-03-29T02:50:27.084Z,29.63
2019-03-29T02:51:06.729Z,29.20
2019-03-29T02:51:46.354Z,30.27
2019-03-29T02:52:26.071Z,31.00
2019-03-29T02:53:05.969Z,30.20
2019-03-29T02:53:45.575Z,30.70
2019-03-29T02:54:24.605Z,31.23
2019-03-29T02:55:03.637Z,31.13
2019-03-29T02:55:42.831Z,30.23
2019-03-29T02:56:22.149Z,30.17
2019-03-29T02:57:01.654Z,30.87
2019-03-29T02:57:41.188Z,28.30
2019-03-29T02:58:20.856Z,29.90
2019-03-29T02:59:00.317Z,30.60
2019-03-29T02:59:39.963Z,28.60
2019-03-29T03:00:20.488Z,28.37
2019-03-29T03:01:00.185Z,29.10
2019-03-29T03:01:39.889Z,28.70
2019-03-29T03:02:19.312Z,28.80
2019-03-29T03:02:58.936Z,29.20
2019-03-29T03:03:38.842Z,28.73
2019-03-29T03:04:18.420Z,28.23
2019-03-29T03:04:58.064Z,29.23
2019-03-29T03:05:37.849Z,29.33
2019-03-29T03:06:17.290Z,29.33
2019-03-29T03:06:56.956Z,28.93
2019-03-29T03:07:36.782Z,29.60
2019-03-29T03:08:16.017Z,27.73
2019-03-29T03:09:11.811Z,28.70
2019-03-29T03:09:35.551Z,28.50
2019-03-29T03:10:15.219Z,28.47
2019-03-29T03:10:54.882Z,29.20
2019-03-29T03:11:34.038Z,28.27
2019-03-29T03:12:13.332Z,28.80
2019-03-29T03:12:52.438Z,29.00
2019-03-29T03:13:31.993Z,28.20
2019-03-29T03:14:11.843Z,28.07
2019-03-29T03:14:51.377Z,29.37
2019-03-29T03:15:30.820Z,27.40
2019-03-29T03:16:10.480Z,28.40
2019-03-29T03:16:49.675Z,27.80
2019-03-29T03:17:30.064Z,27.50
2019-03-29T03:18:09.691Z,27.23
2019-03-29T03:18:49.086Z,27.57
2019-03-29T03:19:28.530Z,26.70
2019-03-29T03:20:08.081Z,25.80
2019-03-29T03:20:47.822Z,26.40
2019-03-29T03:21:26.804Z,26.00
2019-03-29T03:22:05.848Z,26.43
2019-03-29T03:22:44.809Z,25.80
2019-03-29T03:23:23.789Z,26.80
2019-03-29T03:24:03.270Z,26.03
2019-03-29T03:24:42.805Z,26.50
2019-03-29T03:25:21.811Z,27.27
2019-03-29T03:26:01.023Z,27.47
2019-03-29T03:26:40.654Z,26.73
2019-03-29T03:27:20.443Z,25.83
2019-03-29T03:28:00.016Z,25.73
2019-03-29T03:28:39.652Z,25.60
2019-03-29T03:29:19.561Z,25.97
2019-03-29T03:29:59.242Z,26.07
2019-03-29T03:30:38.425Z,25.70
2019-03-29T03:31:18.672Z,25.87
2019-03-29T03:31:57.615Z,24.97
2019-03-29T03:32:37.181Z,26.17
2019-03-29T03:33:16.200Z,24.83
2019-03-29T03:33:55.987Z,26.30
2019-03-29T03:34:35.063Z,24.00
2019-03-29T03:35:15.695Z,24.20
2019-03-29T03:35:54.935Z,24.43
2019-03-29T03:36:34.263Z,26.13
2019-03-29T03:37:13.886Z,24.03
2019-03-29T03:37:53.210Z,24.00
2019-03-29T03:38:32.648Z,25.10
2019-03-29T03:39:30.149Z,23.63
2019-03-29T03:39:54.161Z,24.07
2019-03-29T03:40:33.671Z,24.20
2019-03-29T03:41:13.529Z,24.33
2019-03-29T03:41:53.097Z,25.53
2019-03-29T03:42:32.689Z,24.23
2019-03-29T03:43:12.310Z,24.53
2019-03-29T03:43:52.035Z,25.07
2019-03-29T03:44:31.590Z,24.30
2019-03-29T03:45:11.394Z,23.90
2019-03-29T03:45:51.501Z,23.63
2019-03-29T03:46:31.803Z,25.50
2019-03-29T03:47:11.881Z,25.23
2019-03-29T03:47:51.581Z,24.17
2019-03-29T03:48:30.785Z,23.23
2019-03-29T03:49:09.988Z,24.93
2019-03-29T03:49:48.970Z,23.67
2019-03-29T03:50:46.769Z,25.07
2019-03-29T03:51:25.829Z,24.03
2019-03-29T03:52:05.094Z,24.97
2019-03-29T03:52:44.438Z,24.37
2019-03-29T03:53:23.824Z,23.38
2019-03-29T03:54:03.379Z,22.90
2019-03-29T03:54:42.789Z,24.80
2019-03-29T03:55:22.315Z,23.37
2019-03-29T03:56:02.040Z,24.70
2019-03-29T03:56:41.067Z,23.87
2019-03-29T03:57:20.307Z,24.30
2019-03-29T03:58:00.118Z,24.57
2019-03-29T03:58:39.441Z,22.50
2019-03-29T03:59:19.030Z,24.47
2019-03-29T03:59:58.093Z,24.33
2019-03-29T04:00:55.298Z,24.20
2019-03-29T04:01:34.526Z,23.07
2019-03-29T04:02:14.088Z,25.13
2019-03-29T04:02:53.692Z,23.60
2019-03-29T04:03:33.227Z,22.90
2019-03-29T04:04:12.947Z,23.30
2019-03-29T04:04:53.678Z,24.13
2019-03-29T04:05:33.439Z,25.30
2019-03-29T04:06:13.329Z,23.70
2019-03-29T04:06:53.115Z,23.63
2019-03-29T04:07:32.756Z,23.50
2019-03-29T04:08:12.531Z,24.37
2019-03-29T04:08:52.131Z,22.73
2019-03-29T04:09:48.622Z,24.87
2019-03-29T04:10:13.576Z,24.50
2019-03-29T04:10:53.459Z,23.93
2019-03-29T04:11:33.359Z,23.47
2019-03-29T04:12:12.865Z,24.23
2019-03-29T04:12:52.646Z,24.60
2019-03-29T04:13:32.341Z,23.57
2019-03-29T04:14:11.461Z,23.53
2019-03-29T04:14:51.671Z,24.00
2019-03-29T04:15:30.669Z,23.30
2019-03-29T04:16:09.656Z,23.47
2019-03-29T04:16:48.657Z,24.30
2019-03-29T04:17:27.787Z,23.90
2019-03-29T04:18:07.330Z,23.57
2019-03-29T04:18:46.851Z,23.50
2019-03-29T04:19:26.502Z,23.10
2019-03-29T04:20:06.106Z,23.77
2019-03-29T04:20:45.143Z,24.50
2019-03-29T04:21:25.527Z,24.73
2019-03-29T04:22:07.235Z,22.93
2019-03-29T04:22:46.813Z,23.37
2019-03-29T04:23:25.861Z,23.90
2019-03-29T04:24:05.658Z,23.80
2019-03-29T04:24:45.561Z,23.97
2019-03-29T04:25:24.615Z,24.23
2019-03-29T04:26:04.240Z,22.93
2019-03-29T04:26:43.379Z,23.33
2019-03-29T04:27:22.426Z,24.00
2019-03-29T04:28:03.206Z,22.80
2019-03-29T04:28:42.739Z,23.77
2019-03-29T04:29:21.768Z,23.30
2019-03-29T04:30:00.881Z,23.93
2019-03-29T04:30:39.954Z,23.87
2019-03-29T04:31:19.254Z,23.23
2019-03-29T04:31:58.499Z,23.50
2019-03-29T04:32:37.592Z,21.53
2019-03-29T04:33:16.567Z,23.70
2019-03-29T04:33:55.954Z,26.00
2019-03-29T04:34:34.951Z,22.23
2019-03-29T04:35:14.291Z,22.63
2019-03-29T04:35:53.273Z,21.07
2019-03-29T04:36:32.529Z,22.50
2019-03-29T04:37:12.145Z,22.47
2019-03-29T04:37:51.162Z,23.23
2019-03-29T04:38:30.150Z,21.37
2019-03-29T04:39:09.493Z,23.10
2019-03-29T04:40:05.755Z,22.33
2019-03-29T04:40:29.218Z,22.03
2019-03-29T04:41:08.540Z,22.47
2019-03-29T04:41:47.982Z,22.30
2019-03-29T04:42:28.139Z,21.47
2019-03-29T04:43:07.649Z,23.00
2019-03-29T04:43:47.178Z,23.23
2019-03-29T04:44:26.754Z,22.13
2019-03-29T04:45:06.473Z,22.43
2019-03-29T04:45:46.271Z,21.67
2019-03-29T04:46:26.052Z,21.57
2019-03-29T04:47:05.633Z,20.87
2019-03-29T04:47:45.298Z,20.87
2019-03-29T04:48:24.949Z,22.73
2019-03-29T04:49:05.505Z,22.47
2019-03-29T04:49:45.236Z,21.10
2019-03-29T04:50:25.118Z,21.87
2019-03-29T04:51:04.545Z,21.03
2019-03-29T04:51:46.752Z,22.87
2019-03-29T04:52:26.466Z,23.63
2019-03-29T04:53:05.606Z,22.33
2019-03-29T04:53:45.450Z,22.93
2019-03-29T04:54:27.877Z,22.20
2019-03-29T04:55:06.908Z,21.90
2019-03-29T04:55:46.905Z,20.33
2019-03-29T04:56:26.351Z,20.57
2019-03-29T04:57:05.823Z,19.73
2019-03-29T04:57:45.709Z,21.20
2019-03-29T04:58:25.408Z,21.47
2019-03-29T04:59:04.396Z,21.70
2019-03-29T04:59:43.471Z,21.37
2019-03-29T05:00:23.753Z,20.87
2019-03-29T05:01:02.706Z,21.33
2019-03-29T05:01:41.722Z,20.03
2019-03-29T05:02:21.019Z,20.73
2019-03-29T05:03:00.121Z,20.87
2019-03-29T05:03:40.024Z,21.27
2019-03-29T05:04:20.530Z,21.17
2019-03-29T05:04:59.819Z,22.03
2019-03-29T05:05:39.586Z,20.80
2019-03-29T05:06:19.499Z,22.43
2019-03-29T05:06:59.149Z,20.40
2019-03-29T05:07:38.461Z,22.03
2019-03-29T05:08:18.543Z,21.97
2019-03-29T05:08:58.230Z,20.90
2019-03-29T05:09:37.287Z,21.37
2019-03-29T05:10:21.655Z,19.83
2019-03-29T05:10:58.078Z,20.50
2019-03-29T05:11:37.678Z,19.97
2019-03-29T05:12:17.300Z,19.87
2019-03-29T05:13:14.785Z,20.03
2019-03-29T05:13:53.831Z,20.37
2019-03-29T05:14:32.913Z,20.20
2019-03-29T05:15:12.204Z,19.40
2019-03-29T05:15:51.397Z,20.23
2019-03-29T05:16:31.010Z,21.00
2019-03-29T05:17:10.554Z,19.70
2019-03-29T05:17:50.195Z,20.33
2019-03-29T05:18:29.882Z,20.23
2019-03-29T05:19:09.534Z,20.30
2019-03-29T05:19:49.173Z,19.00
2019-03-29T05:20:29.013Z,21.20
2019-03-29T05:21:08.728Z,19.10
2019-03-29T05:21:48.360Z,20.13
2019-03-29T05:22:45.671Z,19.87
2019-03-29T05:23:24.623Z,21.27
2019-03-29T05:24:03.615Z,20.63
2019-03-29T05:24:42.703Z,20.33
2019-03-29T05:25:21.933Z,20.57
2019-03-29T05:26:01.652Z,19.87
2019-03-29T05:26:41.251Z,19.67
2019-03-29T05:27:20.658Z,21.20
2019-03-29T05:28:00.252Z,20.97
2019-03-29T05:28:40.107Z,20.53
2019-03-29T05:29:19.534Z,20.80
2019-03-29T05:29:58.502Z,20.60
2019-03-29T05:30:37.492Z,20.30
2019-03-29T05:31:17.119Z,19.90
2019-03-29T05:31:56.123Z,20.37
2019-03-29T05:32:35.228Z,19.50
2019-03-29T05:33:14.368Z,20.00
2019-03-29T05:33:53.586Z,21.27
2019-03-29T05:34:34.429Z,21.70
2019-03-29T05:35:13.613Z,21.00
2019-03-29T05:35:53.493Z,20.23
2019-03-29T05:36:33.427Z,21.20
2019-03-29T05:37:12.731Z,19.87
2019-03-29T05:37:52.053Z,19.93
2019-03-29T05:38:32.541Z,19.80
2019-03-29T05:39:12.333Z,20.30
2019-03-29T05:39:51.997Z,19.60
2019-03-29T05:40:35.232Z,20.83
2019-03-29T05:41:12.651Z,19.70
2019-03-29T05:41:52.386Z,19.03
2019-03-29T05:42:32.106Z,20.47
2019-03-29T05:43:11.619Z,20.03
2019-03-29T05:43:50.899Z,19.20
2019-03-29T05:44:30.669Z,20.23
2019-03-29T05:45:29.251Z,20.90
2019-03-29T05:46:08.918Z,19.70
2019-03-29T05:47:05.950Z,19.33
2019-03-29T05:47:45.184Z,19.10
2019-03-29T05:48:24.203Z,20.00
2019-03-29T05:49:03.945Z,19.33
2019-03-29T05:49:44.211Z,19.10
2019-03-29T05:50:24.203Z,19.37
2019-03-29T05:51:03.601Z,18.87
2019-03-29T05:51:43.143Z,18.43
2019-03-29T05:52:22.791Z,19.53
2019-03-29T05:53:02.310Z,20.33
2019-03-29T05:53:41.905Z,20.37
2019-03-29T05:54:21.459Z,18.67
2019-03-29T05:55:01.211Z,18.43
2019-03-29T05:55:40.426Z,20.60
2019-03-29T05:56:20.111Z,20.43
2019-03-29T05:57:00.276Z,19.33
2019-03-29T05:57:39.884Z,18.80
2019-03-29T05:58:19.531Z,20.37
2019-03-29T05:58:59.338Z,19.73
2019-03-29T05:59:39.183Z,18.87
2019-03-29T06:00:21.152Z,20.60
2019-03-29T06:01:00.661Z,19.87
2019-03-29T06:01:40.419Z,17.90
2019-03-29T06:02:19.897Z,19.27
2019-03-29T06:02:58.873Z,20.40
2019-03-29T06:03:37.876Z,19.50
2019-03-29T06:04:16.888Z,18.63
2019-03-29T06:04:55.979Z,19.50
2019-03-29T06:05:36.459Z,18.40
2019-03-29T06:06:15.947Z,19.13
2019-03-29T06:06:55.125Z,19.27
2019-03-29T06:07:34.638Z,19.07
2019-03-29T06:08:14.257Z,17.70
2019-03-29T06:08:53.698Z,18.97
2019-03-29T06:09:34.960Z,18.37
2019-03-29T06:10:14.390Z,19.67
2019-03-29T06:10:53.846Z,18.97
2019-03-29T06:11:33.349Z,18.07
2019-03-29T06:12:12.734Z,18.27
2019-03-29T06:12:52.151Z,16.83
2019-03-29T06:13:31.778Z,17.87
2019-03-29T06:14:11.556Z,17.63
2019-03-29T06:14:51.276Z,18.30
2019-03-29T06:15:30.624Z,18.60
2019-03-29T06:16:10.294Z,16.77
2019-03-29T06:16:49.336Z,17.43
2019-03-29T06:17:28.997Z,15.73
2019-03-29T06:18:08.920Z,17.80
2019-03-29T06:18:47.922Z,16.90
2019-03-29T06:19:26.926Z,16.77
2019-03-29T06:20:05.943Z,15.70
2019-03-29T06:20:44.994Z,16.30
2019-03-29T06:21:24.374Z,15.37
2019-03-29T06:22:04.164Z,16.17
2019-03-29T06:22:43.657Z,16.50
2019-03-29T06:23:22.827Z,15.70
2019-03-29T06:24:02.314Z,16.50
2019-03-29T06:24:41.833Z,16.00
2019-03-29T06:25:20.831Z,15.10
2019-03-29T06:25:59.853Z,14.17
2019-03-29T06:26:38.844Z,15.63
2019-03-29T06:27:18.373Z,14.93
2019-03-29T06:27:57.448Z,15.30
2019-03-29T06:28:36.604Z,14.70
2019-03-29T06:29:15.809Z,15.93
2019-03-29T06:29:55.448Z,14.47
2019-03-29T06:30:35.081Z,13.50
2019-03-29T06:31:14.616Z,15.10
2019-03-29T06:31:54.373Z,14.80
2019-03-29T06:32:34.245Z,14.60
2019-03-29T06:33:13.904Z,12.77
2019-03-29T06:33:52.858Z,14.60
2019-03-29T06:34:32.465Z,13.60
2019-03-29T06:35:12.300Z,14.00
2019-03-29T06:35:52.582Z,13.77
2019-03-29T06:36:33.598Z,14.30
2019-03-29T06:37:13.335Z,13.50
2019-03-29T06:37:53.040Z,13.90
2019-03-29T06:38:32.158Z,12.47
2019-03-29T06:39:11.718Z,13.47
2019-03-29T06:39:50.993Z,13.67
2019-03-29T06:40:30.656Z,12.93
2019-03-29T06:41:09.685Z,13.03
2019-03-29T06:41:49.718Z,13.67
2019-03-29T06:42:28.703Z,13.30
2019-03-29T06:43:07.861Z,12.30
2019-03-29T06:43:47.161Z,13.23
2019-03-29T06:44:26.761Z,12.13
2019-03-29T06:45:06.009Z,12.20
2019-03-29T06:45:48.226Z,11.73
2019-03-29T06:46:27.169Z,13.27
2019-03-29T06:47:06.754Z,13.00
2019-03-29T06:47:46.352Z,11.80
2019-03-29T06:48:27.749Z,12.03
2019-03-29T06:49:08.384Z,12.70
2019-03-29T06:49:47.715Z,12.03
2019-03-29T06:50:27.772Z,12.70
2019-03-29T06:51:07.382Z,11.43
2019-03-29T06:51:46.694Z,11.50
2019-03-29T06:52:26.417Z,12.07
2019-03-29T06:53:05.704Z,11.80
2019-03-29T06:53:45.164Z,12.17
2019-03-29T06:54:25.140Z,12.73
2019-03-29T06:55:05.303Z,11.77
2019-03-29T06:55:44.899Z,12.07
2019-03-29T06:56:24.559Z,11.63
2019-03-29T06:57:03.778Z,11.60
2019-03-29T06:57:43.344Z,11.80
2019-03-29T06:58:23.007Z,11.20
2019-03-29T06:59:02.003Z,11.80
2019-03-29T06:59:41.008Z,11.00
2019-03-29T07:00:20.021Z,11.77
2019-03-29T07:01:00.593Z,12.73
2019-03-29T07:01:42.503Z,11.47
2019-03-29T07:02:21.488Z,11.20
2019-03-29T07:03:00.771Z,11.50
2019-03-29T07:03:40.230Z,9.97
2019-03-29T07:04:19.632Z,11.30
2019-03-29T07:04:59.069Z,11.33
2019-03-29T07:05:38.589Z,11.57
2019-03-29T07:06:18.457Z,11.20
2019-03-29T07:06:57.946Z,11.07
2019-03-29T07:07:37.692Z,11.27
2019-03-29T07:08:17.422Z,11.00
2019-03-29T07:08:57.009Z,11.03
2019-03-29T07:09:36.365Z,11.10
2019-03-29T07:10:15.847Z,11.67
2019-03-29T07:10:55.530Z,10.93
2019-03-29T07:11:35.249Z,10.57
2019-03-29T07:12:15.157Z,11.90
2019-03-29T07:12:56.399Z,10.93
2019-03-29T07:13:35.397Z,11.37
2019-03-29T07:14:15.128Z,10.77
2019-03-29T07:14:54.104Z,9.70
2019-03-29T07:15:33.637Z,10.93
2019-03-29T07:16:12.568Z,10.60
2019-03-29T07:16:51.560Z,10.70
2019-03-29T07:17:30.590Z,10.50
2019-03-29T07:18:10.202Z,10.23
2019-03-29T07:18:49.228Z,10.10
2019-03-29T07:19:29.164Z,10.47
2019-03-29T07:20:09.778Z,10.30
2019-03-29T07:20:49.101Z,11.23
2019-03-29T07:21:28.766Z,9.60
2019-03-29T07:22:08.186Z,11.20
2019-03-29T07:22:47.828Z,11.67
2019-03-29T07:23:27.489Z,10.60
2019-03-29T07:24:06.735Z,9.87
2019-03-29T07:24:46.376Z,9.80
2019-03-29T07:25:26.011Z,10.70
2019-03-29T07:26:06.184Z,10.30
2019-03-29T07:26:46.063Z,10.10
2019-03-29T07:27:27.508Z,10.43
2019-03-29T07:28:07.001Z,10.07
2019-03-29T07:28:46.776Z,10.93
2019-03-29T07:29:26.273Z,9.80
2019-03-29T07:30:05.387Z,9.53
2019-03-29T07:30:45.670Z,10.57
2019-03-29T07:31:25.310Z,9.27
2019-03-29T07:32:04.963Z,9.67
2019-03-29T07:32:43.996Z,9.83
2019-03-29T07:33:23.016Z,10.50
2019-03-29T07:34:02.043Z,10.30
2019-03-29T07:34:41.270Z,9.17
2019-03-29T07:35:20.519Z,10.40
2019-03-29T07:35:59.938Z,10.37
2019-03-29T07:36:39.582Z,10.03
2019-03-29T07:37:19.008Z,9.83
2019-03-29T07:37:58.650Z,10.33
2019-03-29T07:38:38.192Z,9.83
2019-03-29T07:39:17.662Z,9.83
2019-03-29T07:39:56.745Z,10.40
2019-03-29T07:40:35.856Z,9.70
2019-03-29T07:41:15.491Z,9.77
2019-03-29T07:41:54.782Z,9.43
2019-03-29T07:42:34.233Z,11.10
2019-03-29T07:43:13.385Z,9.80
2019-03-29T07:43:53.423Z,10.57
2019-03-29T07:44:32.655Z,9.40
2019-03-29T07:45:11.822Z,9.63
2019-03-29T07:45:51.298Z,9.80
2019-03-29T07:46:33.414Z,10.77
2019-03-29T07:47:12.398Z,10.63
2019-03-29T07:47:52.279Z,9.40
2019-03-29T07:48:31.503Z,9.80
2019-03-29T07:49:10.890Z,10.60
2019-03-29T07:49:51.534Z,10.17
2019-03-29T07:50:31.018Z,10.40
2019-03-29T07:51:10.644Z,9.60
2019-03-29T07:51:50.470Z,9.57
2019-03-29T07:52:29.518Z,10.10
2019-03-29T07:53:09.626Z,8.90
2019-03-29T07:53:49.239Z,9.90
2019-03-29T07:54:28.555Z,9.30
2019-03-29T07:55:07.725Z,9.97
2019-03-29T07:55:46.730Z,10.00
2019-03-29T07:56:26.010Z,9.70
2019-03-29T07:57:05.577Z,9.27
2019-03-29T07:57:44.578Z,10.20
2019-03-29T07:58:24.012Z,9.90
2019-03-29T07:59:03.380Z,10.43
2019-03-29T07:59:42.941Z,9.27
2019-03-29T08:00:22.674Z,9.87
2019-03-29T08:01:02.336Z,10.07
2019-03-29T08:01:42.101Z,10.57
2019-03-29T08:02:21.543Z,8.83
2019-03-29T08:03:00.541Z,10.03
2019-03-29T08:03:40.044Z,9.73
2019-03-29T08:04:21.613Z,10.33
2019-03-29T08:05:00.393Z,9.60
2019-03-29T08:05:40.194Z,10.00
2019-03-29T08:06:19.814Z,10.33
2019-03-29T08:06:59.414Z,10.43
2019-03-29T08:07:38.823Z,9.93
2019-03-29T08:08:24.841Z,10.60
2019-03-29T08:09:00.899Z,9.53
2019-03-29T08:09:40.443Z,9.03
2019-03-29T08:10:27.543Z,9.70
2019-03-29T08:11:01.002Z,10.00
2019-03-29T08:11:46.466Z,9.70
2019-03-29T08:12:22.181Z,10.30
2019-03-29T08:13:02.276Z,11.00
2019-03-29T08:13:41.834Z,10.70
2019-03-29T08:14:22.885Z,10.10
2019-03-29T08:15:02.354Z,11.03
2019-03-29T08:15:42.461Z,10.10
2019-03-29T08:16:22.537Z,11.17
2019-03-29T08:17:01.634Z,11.27
2019-03-29T08:17:41.189Z,10.87
2019-03-29T08:18:20.982Z,10.70
2019-03-29T08:19:00.639Z,10.47
2019-03-29T08:19:40.522Z,12.10
2019-03-29T08:20:43.886Z,10.70
2019-03-29T08:21:01.046Z,10.10
2019-03-29T08:21:41.233Z,9.87
2019-03-29T08:22:20.848Z,10.37
2019-03-29T08:23:00.579Z,11.03
2019-03-29T08:23:39.713Z,9.80
2019-03-29T08:24:19.572Z,10.33
2019-03-29T08:24:59.505Z,10.03
2019-03-29T08:25:39.242Z,10.90
2019-03-29T08:26:18.945Z,10.00
2019-03-29T08:26:57.950Z,9.90
2019-03-29T08:27:37.471Z,9.30
2019-03-29T08:28:16.478Z,9.97
2019-03-29T08:28:55.498Z,10.37
2019-03-29T08:29:34.607Z,9.50
2019-03-29T08:30:14.251Z,10.13
2019-03-29T08:30:53.621Z,10.30
2019-03-29T08:31:32.691Z,10.30
2019-03-29T08:32:11.730Z,9.60
2019-03-29T08:32:51.505Z,9.73
2019-03-29T08:33:30.568Z,11.23
2019-03-29T08:34:10.242Z,9.90